sensor_id;sensor_type;location;lat;lon;timestamp;P1;durP1;ratioP1;P2;durP2;ratioP2
49444;SDS011;35323;43.080;-81.378;2023-02-23T00:02:01;0.90;;;0.90;;
49444;SDS011;35323;43.080;-81.378;2023-02-23T00:04:33;0.68;;;0.68;;
49444;SDS011;35323;43.080;-81.378;2023-02-23T00:07:01;0.77;;;0.75;;
49444;SDS011;35323;43.080;-81.378;2023-02-23T00:09:29;0.60;;;0.60;;
49444;SDS011;35323;43.080;-81.378;2023-02-23T00:12:02;1.10;;;0.95;;
49444;SDS011;35323;43.080;-81.378;2023-02-23T00:14:34;0.50;;;0.50;;
49444;SDS011;35323;43.080;-81.378;2023-02-23T00:17:04;0.95;;;0.95;;
49444;SDS011;35323;43.080;-81.378;2023-02-23T00:19:36;1.60;;;1.33;;
49444;SDS011;35323;43.080;-81.378;2023-02-23T00:22:04;0.70;;;0.70;;
49444;SDS011;35323;43.080;-81.378;2023-02-23T00:24:32;3.17;;;0.63;;
49444;SDS011;35323;43.080;-81.378;2023-02-23T00:27:02;0.65;;;0.60;;
49444;SDS011;35323;43.080;-81.378;2023-02-23T00:29:33;0.75;;;0.75;;
49444;SDS011;35323;43.080;-81.378;2023-02-23T00:32:06;1.30;;;1.25;;
49444;SDS011;35323;43.080;-81.378;2023-02-23T00:34:34;0.60;;;0.60;;
49444;SDS011;35323;43.080;-81.378;2023-02-23T00:37:03;1.13;;;1.05;;
49444;SDS011;35323;43.080;-81.378;2023-02-23T00:39:31;0.75;;;0.75;;
49444;SDS011;35323;43.080;-81.378;2023-02-23T00:41:59;0.80;;;0.80;;
49444;SDS011;35323;43.080;-81.378;2023-02-23T00:44:29;0.77;;;0.75;;
49444;SDS011;35323;43.080;-81.378;2023-02-23T00:47:00;1.52;;;1.42;;
49444;SDS011;35323;43.080;-81.378;2023-02-23T00:49:28;1.30;;;0.60;;
49444;SDS011;35323;43.080;-81.378;2023-02-23T00:51:56;0.68;;;0.68;;
49444;SDS011;35323;43.080;-81.378;2023-02-23T00:54:24;0.73;;;0.73;;
49444;SDS011;35323;43.080;-81.378;2023-02-23T00:56:55;0.85;;;0.85;;
49444;SDS011;35323;43.080;-81.378;2023-02-23T00:59:23;0.60;;;0.60;;
49444;SDS011;35323;43.080;-81.378;2023-02-23T01:01:51;0.70;;;0.70;;
49444;SDS011;35323;43.080;-81.378;2023-02-23T01:04:18;0.60;;;0.60;;
49444;SDS011;35323;43.080;-81.378;2023-02-23T01:06:46;5.15;;;1.00;;
49444;SDS011;35323;43.080;-81.378;2023-02-23T01:09:14;1.73;;;0.88;;
49444;SDS011;35323;43.080;-81.378;2023-02-23T01:11:47;0.63;;;0.63;;
49444;SDS011;35323;43.080;-81.378;2023-02-23T01:14:15;0.50;;;0.50;;
49444;SDS011;35323;43.080;-81.378;2023-02-23T01:16:43;0.88;;;0.80;;
49444;SDS011;35323;43.080;-81.378;2023-02-23T01:19:11;2.83;;;1.25;;
49444;SDS011;35323;43.080;-81.378;2023-02-23T01:21:40;2.15;;;0.75;;
49444;SDS011;35323;43.080;-81.378;2023-02-23T01:24:08;0.90;;;0.90;;
49444;SDS011;35323;43.080;-81.378;2023-02-23T01:26:39;2.00;;;1.42;;
49444;SDS011;35323;43.080;-81.378;2023-02-23T01:29:08;1.02;;;0.93;;
49444;SDS011;35323;43.080;-81.378;2023-02-23T01:31:39;0.63;;;0.63;;
49444;SDS011;35323;43.080;-81.378;2023-02-23T01:34:08;1.27;;;1.17;;
49444;SDS011;35323;43.080;-81.378;2023-02-23T01:36:38;0.77;;;0.77;;
49444;SDS011;35323;43.080;-81.378;2023-02-23T01:39:07;0.90;;;0.90;;
49444;SDS011;35323;43.080;-81.378;2023-02-23T01:41:35;0.73;;;0.63;;
49444;SDS011;35323;43.080;-81.378;2023-02-23T01:46:54;0.70;;;0.70;;
49444;SDS011;35323;43.080;-81.378;2023-02-23T01:49:22;1.42;;;1.33;;
49444;SDS011;35323;43.080;-81.378;2023-02-23T01:51:55;1.92;;;1.08;;
49444;SDS011;35323;43.080;-81.378;2023-02-23T01:54:26;0.65;;;0.65;;
49444;SDS011;35323;43.080;-81.378;2023-02-23T01:56:55;1.67;;;1.02;;
49444;SDS011;35323;43.080;-81.378;2023-02-23T01:59:43;0.63;;;0.60;;
49444;SDS011;35323;43.080;-81.378;2023-02-23T02:02:11;0.98;;;0.85;;
49444;SDS011;35323;43.080;-81.378;2023-02-23T02:04:40;0.90;;;0.80;;
49444;SDS011;35323;43.080;-81.378;2023-02-23T02:07:20;0.55;;;0.55;;
49444;SDS011;35323;43.080;-81.378;2023-02-23T02:09:50;0.93;;;0.80;;
49444;SDS011;35323;43.080;-81.378;2023-02-23T02:12:37;1.58;;;1.48;;
49444;SDS011;35323;43.080;-81.378;2023-02-23T02:15:05;0.90;;;0.80;;
49444;SDS011;35323;43.080;-81.378;2023-02-23T02:38:20;1.58;;;1.27;;
49444;SDS011;35323;43.080;-81.378;2023-02-23T02:51:06;0.80;;;0.80;;
49444;SDS011;35323;43.080;-81.378;2023-02-23T02:56:20;1.00;;;0.95;;
49444;SDS011;35323;43.080;-81.378;2023-02-23T02:58:48;1.30;;;1.20;;
49444;SDS011;35323;43.080;-81.378;2023-02-23T03:01:17;1.35;;;1.25;;
49444;SDS011;35323;43.080;-81.378;2023-02-23T03:04:18;1.48;;;1.00;;
49444;SDS011;35323;43.080;-81.378;2023-02-23T03:07:14;0.70;;;0.70;;
49444;SDS011;35323;43.080;-81.378;2023-02-23T03:10:02;1.27;;;1.00;;
49444;SDS011;35323;43.080;-81.378;2023-02-23T03:13:35;1.00;;;0.65;;
49444;SDS011;35323;43.080;-81.378;2023-02-23T03:19:18;1.75;;;1.52;;
49444;SDS011;35323;43.080;-81.378;2023-02-23T03:22:23;1.67;;;1.58;;
49444;SDS011;35323;43.080;-81.378;2023-02-23T03:25:13;1.55;;;1.45;;
49444;SDS011;35323;43.080;-81.378;2023-02-23T03:31:01;1.17;;;1.13;;
49444;SDS011;35323;43.080;-81.378;2023-02-23T03:37:10;1.10;;;1.00;;
49444;SDS011;35323;43.080;-81.378;2023-02-23T03:43:21;1.55;;;1.38;;
49444;SDS011;35323;43.080;-81.378;2023-02-23T03:46:08;2.08;;;1.55;;
49444;SDS011;35323;43.080;-81.378;2023-02-23T03:48:56;1.67;;;1.55;;
49444;SDS011;35323;43.080;-81.378;2023-02-23T03:51:43;1.52;;;1.42;;
49444;SDS011;35323;43.080;-81.378;2023-02-23T03:54:39;2.42;;;1.30;;
49444;SDS011;35323;43.080;-81.378;2023-02-23T03:57:27;1.95;;;1.45;;
49444;SDS011;35323;43.080;-81.378;2023-02-23T04:00:17;1.63;;;1.52;;
49444;SDS011;35323;43.080;-81.378;2023-02-23T04:03:05;0.98;;;0.93;;
49444;SDS011;35323;43.080;-81.378;2023-02-23T04:05:53;4.68;;;1.67;;
49444;SDS011;35323;43.080;-81.378;2023-02-23T04:08:40;1.38;;;1.27;;
49444;SDS011;35323;43.080;-81.378;2023-02-23T04:11:36;5.05;;;1.77;;
49444;SDS011;35323;43.080;-81.378;2023-02-23T04:14:33;1.38;;;0.95;;
49444;SDS011;35323;43.080;-81.378;2023-02-23T04:17:02;3.03;;;1.17;;
49444;SDS011;35323;43.080;-81.378;2023-02-23T04:19:30;1.27;;;1.17;;
49444;SDS011;35323;43.080;-81.378;2023-02-23T04:21:58;1.02;;;1.02;;
49444;SDS011;35323;43.080;-81.378;2023-02-23T04:24:25;1.27;;;1.23;;
49444;SDS011;35323;43.080;-81.378;2023-02-23T04:26:53;1.63;;;1.48;;
49444;SDS011;35323;43.080;-81.378;2023-02-23T04:29:21;0.98;;;0.98;;
49444;SDS011;35323;43.080;-81.378;2023-02-23T04:31:48;1.42;;;1.33;;
49444;SDS011;35323;43.080;-81.378;2023-02-23T04:34:16;2.60;;;1.60;;
49444;SDS011;35323;43.080;-81.378;2023-02-23T04:36:43;1.40;;;1.30;;
49444;SDS011;35323;43.080;-81.378;2023-02-23T04:39:11;3.03;;;2.40;;
49444;SDS011;35323;43.080;-81.378;2023-02-23T04:41:38;1.33;;;1.23;;
49444;SDS011;35323;43.080;-81.378;2023-02-23T04:44:07;2.22;;;1.05;;
49444;SDS011;35323;43.080;-81.378;2023-02-23T04:46:34;1.20;;;1.10;;
49444;SDS011;35323;43.080;-81.378;2023-02-23T04:49:02;2.40;;;1.08;;
49444;SDS011;35323;43.080;-81.378;2023-02-23T04:51:30;3.95;;;1.45;;
49444;SDS011;35323;43.080;-81.378;2023-02-23T04:54:00;0.93;;;0.93;;
49444;SDS011;35323;43.080;-81.378;2023-02-23T04:56:28;1.42;;;0.88;;
49444;SDS011;35323;43.080;-81.378;2023-02-23T04:58:56;1.10;;;1.10;;
49444;SDS011;35323;43.080;-81.378;2023-02-23T05:01:23;0.88;;;0.88;;
49444;SDS011;35323;43.080;-81.378;2023-02-23T05:03:51;4.68;;;1.67;;
49444;SDS011;35323;43.080;-81.378;2023-02-23T05:06:19;1.50;;;1.40;;
49444;SDS011;35323;43.080;-81.378;2023-02-23T05:08:47;2.60;;;1.77;;
49444;SDS011;35323;43.080;-81.378;2023-02-23T05:11:15;3.20;;;1.25;;
49444;SDS011;35323;43.080;-81.378;2023-02-23T05:13:43;1.70;;;1.33;;
49444;SDS011;35323;43.080;-81.378;2023-02-23T05:16:10;0.90;;;0.90;;
49444;SDS011;35323;43.080;-81.378;2023-02-23T05:18:38;1.27;;;1.27;;
49444;SDS011;35323;43.080;-81.378;2023-02-23T05:21:06;1.73;;;1.35;;
49444;SDS011;35323;43.080;-81.378;2023-02-23T05:23:34;1.40;;;1.20;;
49444;SDS011;35323;43.080;-81.378;2023-02-23T05:26:03;1.70;;;1.60;;
49444;SDS011;35323;43.080;-81.378;2023-02-23T05:28:32;1.85;;;1.70;;
49444;SDS011;35323;43.080;-81.378;2023-02-23T05:31:01;1.25;;;0.95;;
49444;SDS011;35323;43.080;-81.378;2023-02-23T05:33:32;1.52;;;1.10;;
49444;SDS011;35323;43.080;-81.378;2023-02-23T05:36:03;0.93;;;0.93;;
49444;SDS011;35323;43.080;-81.378;2023-02-23T05:38:30;1.42;;;1.42;;
49444;SDS011;35323;43.080;-81.378;2023-02-23T05:40:58;1.67;;;1.00;;
49444;SDS011;35323;43.080;-81.378;2023-02-23T05:43:25;1.17;;;0.88;;
49444;SDS011;35323;43.080;-81.378;2023-02-23T05:45:53;1.65;;;0.77;;
49444;SDS011;35323;43.080;-81.378;2023-02-23T05:48:21;0.93;;;0.93;;
49444;SDS011;35323;43.080;-81.378;2023-02-23T05:50:49;0.80;;;0.80;;
49444;SDS011;35323;43.080;-81.378;2023-02-23T05:53:16;1.88;;;1.75;;
49444;SDS011;35323;43.080;-81.378;2023-02-23T05:55:44;3.60;;;1.13;;
49444;SDS011;35323;43.080;-81.378;2023-02-23T05:58:12;1.33;;;1.33;;
49444;SDS011;35323;43.080;-81.378;2023-02-23T06:00:40;0.93;;;0.93;;
49444;SDS011;35323;43.080;-81.378;2023-02-23T06:03:07;3.25;;;1.70;;
49444;SDS011;35323;43.080;-81.378;2023-02-23T06:05:35;1.38;;;1.27;;
49444;SDS011;35323;43.080;-81.378;2023-02-23T06:08:02;0.80;;;0.80;;
49444;SDS011;35323;43.080;-81.378;2023-02-23T06:10:30;1.42;;;1.33;;
49444;SDS011;35323;43.080;-81.378;2023-02-23T06:12:57;1.52;;;1.40;;
49444;SDS011;35323;43.080;-81.378;2023-02-23T06:15:25;1.20;;;1.10;;
49444;SDS011;35323;43.080;-81.378;2023-02-23T06:17:55;2.30;;;1.10;;
49444;SDS011;35323;43.080;-81.378;2023-02-23T06:20:23;0.80;;;0.80;;
49444;SDS011;35323;43.080;-81.378;2023-02-23T06:22:50;1.48;;;1.38;;
49444;SDS011;35323;43.080;-81.378;2023-02-23T06:25:18;0.90;;;0.90;;
49444;SDS011;35323;43.080;-81.378;2023-02-23T06:27:45;2.38;;;1.27;;
49444;SDS011;35323;43.080;-81.378;2023-02-23T06:30:13;5.80;;;1.60;;
49444;SDS011;35323;43.080;-81.378;2023-02-23T06:32:40;0.98;;;0.98;;
49444;SDS011;35323;43.080;-81.378;2023-02-23T06:35:08;2.30;;;1.17;;
49444;SDS011;35323;43.080;-81.378;2023-02-23T06:37:36;1.42;;;1.25;;
49444;SDS011;35323;43.080;-81.378;2023-02-23T06:40:03;1.48;;;1.13;;
49444;SDS011;35323;43.080;-81.378;2023-02-23T06:42:31;0.90;;;0.90;;
49444;SDS011;35323;43.080;-81.378;2023-02-23T06:45:00;1.58;;;1.13;;
49444;SDS011;35323;43.080;-81.378;2023-02-23T06:47:28;2.00;;;1.90;;
49444;SDS011;35323;43.080;-81.378;2023-02-23T06:49:55;2.97;;;1.45;;
49444;SDS011;35323;43.080;-81.378;2023-02-23T06:52:23;1.90;;;1.25;;
49444;SDS011;35323;43.080;-81.378;2023-02-23T06:54:52;1.17;;;1.17;;
49444;SDS011;35323;43.080;-81.378;2023-02-23T06:57:19;2.15;;;1.98;;
49444;SDS011;35323;43.080;-81.378;2023-02-23T06:59:47;0.90;;;0.88;;
49444;SDS011;35323;43.080;-81.378;2023-02-23T07:02:15;4.45;;;1.80;;
49444;SDS011;35323;43.080;-81.378;2023-02-23T07:04:43;1.95;;;1.48;;
49444;SDS011;35323;43.080;-81.378;2023-02-23T07:07:10;1.30;;;1.20;;
49444;SDS011;35323;43.080;-81.378;2023-02-23T07:09:39;1.17;;;1.08;;
49444;SDS011;35323;43.080;-81.378;2023-02-23T07:12:07;1.52;;;1.30;;
49444;SDS011;35323;43.080;-81.378;2023-02-23T07:14:35;0.93;;;0.93;;
49444;SDS011;35323;43.080;-81.378;2023-02-23T07:17:03;0.50;;;0.47;;
49444;SDS011;35323;43.080;-81.378;2023-02-23T07:19:31;1.13;;;0.82;;
49444;SDS011;35323;43.080;-81.378;2023-02-23T07:21:59;1.40;;;1.30;;
49444;SDS011;35323;43.080;-81.378;2023-02-23T07:24:26;1.13;;;0.95;;
49444;SDS011;35323;43.080;-81.378;2023-02-23T07:26:54;0.93;;;0.93;;
49444;SDS011;35323;43.080;-81.378;2023-02-23T07:29:22;2.45;;;2.30;;
49444;SDS011;35323;43.080;-81.378;2023-02-23T07:31:50;2.13;;;1.67;;
49444;SDS011;35323;43.080;-81.378;2023-02-23T07:34:17;1.15;;;1.08;;
49444;SDS011;35323;43.080;-81.378;2023-02-23T07:36:45;1.10;;;1.02;;
49444;SDS011;35323;43.080;-81.378;2023-02-23T07:39:12;1.83;;;1.30;;
49444;SDS011;35323;43.080;-81.378;2023-02-23T07:41:41;1.45;;;1.35;;
49444;SDS011;35323;43.080;-81.378;2023-02-23T07:44:08;1.85;;;1.25;;
49444;SDS011;35323;43.080;-81.378;2023-02-23T07:46:36;0.90;;;0.90;;
49444;SDS011;35323;43.080;-81.378;2023-02-23T07:49:03;2.47;;;1.80;;
49444;SDS011;35323;43.080;-81.378;2023-02-23T07:51:31;0.85;;;0.80;;
49444;SDS011;35323;43.080;-81.378;2023-02-23T07:54:03;1.00;;;1.00;;
49444;SDS011;35323;43.080;-81.378;2023-02-23T07:56:31;1.48;;;1.38;;
49444;SDS011;35323;43.080;-81.378;2023-02-23T07:58:59;1.90;;;1.77;;
49444;SDS011;35323;43.080;-81.378;2023-02-23T08:01:27;1.80;;;1.25;;
49444;SDS011;35323;43.080;-81.378;2023-02-23T08:03:54;1.30;;;1.20;;
49444;SDS011;35323;43.080;-81.378;2023-02-23T08:06:22;2.13;;;1.33;;
49444;SDS011;35323;43.080;-81.378;2023-02-23T08:08:50;1.38;;;1.02;;
49444;SDS011;35323;43.080;-81.378;2023-02-23T08:11:17;1.98;;;1.30;;
49444;SDS011;35323;43.080;-81.378;2023-02-23T08:13:45;1.27;;;1.17;;
49444;SDS011;35323;43.080;-81.378;2023-02-23T08:16:13;2.45;;;1.02;;
49444;SDS011;35323;43.080;-81.378;2023-02-23T08:18:42;2.40;;;1.00;;
49444;SDS011;35323;43.080;-81.378;2023-02-23T08:21:10;2.67;;;1.40;;
49444;SDS011;35323;43.080;-81.378;2023-02-23T08:23:38;1.10;;;1.10;;
49444;SDS011;35323;43.080;-81.378;2023-02-23T08:26:05;1.95;;;1.50;;
49444;SDS011;35323;43.080;-81.378;2023-02-23T08:28:33;1.25;;;1.05;;
49444;SDS011;35323;43.080;-81.378;2023-02-23T08:31:00;1.05;;;1.00;;
49444;SDS011;35323;43.080;-81.378;2023-02-23T08:33:28;1.30;;;1.20;;
49444;SDS011;35323;43.080;-81.378;2023-02-23T08:35:58;0.85;;;0.85;;
49444;SDS011;35323;43.080;-81.378;2023-02-23T08:38:28;1.67;;;1.58;;
49444;SDS011;35323;43.080;-81.378;2023-02-23T08:40:58;1.50;;;1.40;;
49444;SDS011;35323;43.080;-81.378;2023-02-23T08:43:26;1.25;;;1.10;;
49444;SDS011;35323;43.080;-81.378;2023-02-23T08:45:54;1.73;;;1.60;;
49444;SDS011;35323;43.080;-81.378;2023-02-23T08:48:21;1.40;;;1.20;;
49444;SDS011;35323;43.080;-81.378;2023-02-23T08:50:54;2.33;;;1.27;;
49444;SDS011;35323;43.080;-81.378;2023-02-23T08:53:21;0.93;;;0.90;;
49444;SDS011;35323;43.080;-81.378;2023-02-23T08:55:58;2.80;;;1.25;;
49444;SDS011;35323;43.080;-81.378;2023-02-23T08:58:27;1.08;;;0.93;;
49444;SDS011;35323;43.080;-81.378;2023-02-23T09:00:54;1.67;;;0.70;;
49444;SDS011;35323;43.080;-81.378;2023-02-23T09:03:23;1.48;;;1.38;;
49444;SDS011;35323;43.080;-81.378;2023-02-23T09:05:52;0.90;;;0.90;;
49444;SDS011;35323;43.080;-81.378;2023-02-23T09:08:19;1.15;;;1.15;;
49444;SDS011;35323;43.080;-81.378;2023-02-23T09:10:47;1.60;;;1.30;;
49444;SDS011;35323;43.080;-81.378;2023-02-23T09:13:15;2.38;;;1.20;;
49444;SDS011;35323;43.080;-81.378;2023-02-23T09:15:43;3.63;;;2.80;;
49444;SDS011;35323;43.080;-81.378;2023-02-23T09:18:11;0.88;;;0.88;;
49444;SDS011;35323;43.080;-81.378;2023-02-23T09:20:43;1.55;;;1.35;;
49444;SDS011;35323;43.080;-81.378;2023-02-23T09:23:11;1.02;;;1.02;;
49444;SDS011;35323;43.080;-81.378;2023-02-23T09:25:40;1.60;;;1.30;;
49444;SDS011;35323;43.080;-81.378;2023-02-23T09:28:16;0.80;;;0.80;;
49444;SDS011;35323;43.080;-81.378;2023-02-23T09:30:44;0.95;;;0.95;;
49444;SDS011;35323;43.080;-81.378;2023-02-23T09:33:12;1.48;;;1.38;;
49444;SDS011;35323;43.080;-81.378;2023-02-23T09:35:40;1.60;;;1.50;;
49444;SDS011;35323;43.080;-81.378;2023-02-23T09:38:08;1.10;;;1.10;;
49444;SDS011;35323;43.080;-81.378;2023-02-23T09:40:42;1.67;;;1.25;;
49444;SDS011;35323;43.080;-81.378;2023-02-23T09:43:11;2.67;;;1.30;;
49444;SDS011;35323;43.080;-81.378;2023-02-23T09:48:12;2.38;;;0.80;;
49444;SDS011;35323;43.080;-81.378;2023-02-23T09:50:41;4.35;;;1.92;;
49444;SDS011;35323;43.080;-81.378;2023-02-23T09:55:38;1.42;;;1.33;;
49444;SDS011;35323;43.080;-81.378;2023-02-23T09:58:07;1.73;;;1.63;;
49444;SDS011;35323;43.080;-81.378;2023-02-23T10:00:43;1.35;;;1.25;;
49444;SDS011;35323;43.080;-81.378;2023-02-23T10:03:16;1.33;;;1.23;;
49444;SDS011;35323;43.080;-81.378;2023-02-23T10:05:50;3.20;;;1.30;;
49444;SDS011;35323;43.080;-81.378;2023-02-23T10:10:48;1.13;;;1.02;;
49444;SDS011;35323;43.080;-81.378;2023-02-23T10:13:20;1.08;;;0.93;;
49444;SDS011;35323;43.080;-81.378;2023-02-23T10:16:06;1.02;;;1.02;;
49444;SDS011;35323;43.080;-81.378;2023-02-23T10:18:45;4.45;;;1.77;;
49444;SDS011;35323;43.080;-81.378;2023-02-23T10:21:20;0.80;;;0.80;;
49444;SDS011;35323;43.080;-81.378;2023-02-23T10:23:59;1.25;;;1.05;;
49444;SDS011;35323;43.080;-81.378;2023-02-23T10:26:31;1.77;;;1.67;;
49444;SDS011;35323;43.080;-81.378;2023-02-23T10:29:00;1.48;;;1.38;;
49444;SDS011;35323;43.080;-81.378;2023-02-23T10:31:41;1.35;;;1.25;;
49444;SDS011;35323;43.080;-81.378;2023-02-23T10:34:14;1.20;;;1.20;;
49444;SDS011;35323;43.080;-81.378;2023-02-23T10:36:47;2.15;;;1.48;;
49444;SDS011;35323;43.080;-81.378;2023-02-23T10:39:16;1.70;;;1.60;;
49444;SDS011;35323;43.080;-81.378;2023-02-23T10:41:44;2.28;;;1.08;;
49444;SDS011;35323;43.080;-81.378;2023-02-23T10:44:18;0.90;;;0.90;;
49444;SDS011;35323;43.080;-81.378;2023-02-23T10:46:53;1.75;;;1.25;;
49444;SDS011;35323;43.080;-81.378;2023-02-23T10:49:21;1.30;;;1.15;;
49444;SDS011;35323;43.080;-81.378;2023-02-23T10:51:50;1.15;;;0.93;;
49444;SDS011;35323;43.080;-81.378;2023-02-23T10:54:37;1.05;;;0.98;;
49444;SDS011;35323;43.080;-81.378;2023-02-23T10:57:06;2.00;;;1.80;;
49444;SDS011;35323;43.080;-81.378;2023-02-23T10:59:34;1.40;;;1.17;;
49444;SDS011;35323;43.080;-81.378;2023-02-23T11:02:24;1.25;;;1.23;;
49444;SDS011;35323;43.080;-81.378;2023-02-23T11:04:53;2.00;;;1.35;;
49444;SDS011;35323;43.080;-81.378;2023-02-23T11:07:23;1.48;;;1.38;;
49444;SDS011;35323;43.080;-81.378;2023-02-23T11:09:51;1.58;;;1.48;;
49444;SDS011;35323;43.080;-81.378;2023-02-23T11:12:52;1.25;;;1.15;;
49444;SDS011;35323;43.080;-81.378;2023-02-23T11:15:31;2.65;;;2.05;;
49444;SDS011;35323;43.080;-81.378;2023-02-23T11:18:21;2.42;;;1.50;;
49444;SDS011;35323;43.080;-81.378;2023-02-23T11:20:51;1.70;;;1.60;;
49444;SDS011;35323;43.080;-81.378;2023-02-23T11:23:21;5.47;;;1.50;;
49444;SDS011;35323;43.080;-81.378;2023-02-23T11:25:50;3.45;;;2.00;;
49444;SDS011;35323;43.080;-81.378;2023-02-23T11:28:20;4.70;;;1.83;;
49444;SDS011;35323;43.080;-81.378;2023-02-23T11:30:50;1.30;;;1.10;;
49444;SDS011;35323;43.080;-81.378;2023-02-23T11:33:22;1.85;;;1.60;;
49444;SDS011;35323;43.080;-81.378;2023-02-23T11:35:58;2.22;;;2.05;;
49444;SDS011;35323;43.080;-81.378;2023-02-23T11:38:29;2.13;;;1.77;;
49444;SDS011;35323;43.080;-81.378;2023-02-23T11:43:26;1.50;;;1.30;;
49444;SDS011;35323;43.080;-81.378;2023-02-23T11:45:54;3.03;;;1.65;;
49444;SDS011;35323;43.080;-81.378;2023-02-23T11:50:54;2.65;;;1.90;;
49444;SDS011;35323;43.080;-81.378;2023-02-23T11:53:34;2.03;;;1.63;;
49444;SDS011;35323;43.080;-81.378;2023-02-23T11:56:02;2.35;;;1.67;;
49444;SDS011;35323;43.080;-81.378;2023-02-23T11:58:38;2.33;;;1.65;;
49444;SDS011;35323;43.080;-81.378;2023-02-23T12:01:07;1.50;;;1.40;;
49444;SDS011;35323;43.080;-81.378;2023-02-23T12:03:43;2.47;;;2.28;;
49444;SDS011;35323;43.080;-81.378;2023-02-23T12:06:11;5.57;;;1.80;;
49444;SDS011;35323;43.080;-81.378;2023-02-23T12:08:53;3.72;;;2.17;;
49444;SDS011;35323;43.080;-81.378;2023-02-23T12:11:25;1.02;;;0.98;;
49444;SDS011;35323;43.080;-81.378;2023-02-23T12:14:00;1.40;;;1.10;;
49444;SDS011;35323;43.080;-81.378;2023-02-23T12:16:34;3.33;;;2.10;;
49444;SDS011;35323;43.080;-81.378;2023-02-23T12:27:03;1.20;;;1.20;;
49444;SDS011;35323;43.080;-81.378;2023-02-23T12:35:17;2.35;;;1.92;;
49444;SDS011;35323;43.080;-81.378;2023-02-23T12:37:54;3.47;;;1.92;;
49444;SDS011;35323;43.080;-81.378;2023-02-23T12:40:28;2.35;;;2.17;;
49444;SDS011;35323;43.080;-81.378;2023-02-23T12:46:07;2.08;;;1.85;;
49444;SDS011;35323;43.080;-81.378;2023-02-23T12:51:02;3.00;;;1.88;;
49444;SDS011;35323;43.080;-81.378;2023-02-23T12:53:40;2.53;;;1.80;;
49444;SDS011;35323;43.080;-81.378;2023-02-23T12:58:46;2.03;;;1.83;;
49444;SDS011;35323;43.080;-81.378;2023-02-23T13:01:20;5.68;;;2.58;;
49444;SDS011;35323;43.080;-81.378;2023-02-23T13:03:54;2.08;;;1.90;;
49444;SDS011;35323;43.080;-81.378;2023-02-23T13:09:09;2.65;;;2.15;;
49444;SDS011;35323;43.080;-81.378;2023-02-23T13:19:47;5.32;;;2.40;;
49444;SDS011;35323;43.080;-81.378;2023-02-23T13:22:23;2.88;;;2.38;;
49444;SDS011;35323;43.080;-81.378;2023-02-23T13:24:53;2.90;;;2.17;;
49444;SDS011;35323;43.080;-81.378;2023-02-23T13:27:24;3.38;;;2.35;;
49444;SDS011;35323;43.080;-81.378;2023-02-23T13:29:53;3.92;;;1.75;;
49444;SDS011;35323;43.080;-81.378;2023-02-23T13:32:21;1.88;;;1.75;;
49444;SDS011;35323;43.080;-81.378;2023-02-23T13:35:00;5.10;;;2.90;;
49444;SDS011;35323;43.080;-81.378;2023-02-23T13:37:33;3.22;;;2.67;;
49444;SDS011;35323;43.080;-81.378;2023-02-23T13:40:22;2.17;;;1.98;;
49444;SDS011;35323;43.080;-81.378;2023-02-23T13:42:58;1.60;;;1.50;;
49444;SDS011;35323;43.080;-81.378;2023-02-23T13:45:38;2.53;;;2.13;;
49444;SDS011;35323;43.080;-81.378;2023-02-23T13:53:32;14.80;;;2.75;;
49444;SDS011;35323;43.080;-81.378;2023-02-23T13:56:24;3.33;;;1.80;;
49444;SDS011;35323;43.080;-81.378;2023-02-23T13:58:50;2.25;;;2.03;;
49444;SDS011;35323;43.080;-81.378;2023-02-23T14:01:20;2.47;;;1.85;;
49444;SDS011;35323;43.080;-81.378;2023-02-23T14:03:52;1.67;;;1.58;;
49444;SDS011;35323;43.080;-81.378;2023-02-23T14:06:22;3.53;;;2.30;;
49444;SDS011;35323;43.080;-81.378;2023-02-23T14:08:51;2.88;;;2.28;;
49444;SDS011;35323;43.080;-81.378;2023-02-23T14:12:22;2.35;;;2.05;;
49444;SDS011;35323;43.080;-81.378;2023-02-23T14:22:18;2.33;;;1.92;;
49444;SDS011;35323;43.080;-81.378;2023-02-23T14:27:42;3.33;;;2.35;;
49444;SDS011;35323;43.080;-81.378;2023-02-23T14:32:38;3.28;;;3.08;;
49444;SDS011;35323;43.080;-81.378;2023-02-23T14:35:52;4.15;;;2.67;;
49444;SDS011;35323;43.080;-81.378;2023-02-23T14:37:55;3.22;;;3.03;;
49444;SDS011;35323;43.080;-81.378;2023-02-23T14:40:29;6.35;;;3.58;;
49444;SDS011;35323;43.080;-81.378;2023-02-23T14:42:59;3.53;;;2.72;;
49444;SDS011;35323;43.080;-81.378;2023-02-23T14:45:28;2.30;;;2.10;;
49444;SDS011;35323;43.080;-81.378;2023-02-23T14:48:06;5.47;;;2.88;;
49444;SDS011;35323;43.080;-81.378;2023-02-23T14:50:38;5.78;;;3.22;;
49444;SDS011;35323;43.080;-81.378;2023-02-23T14:53:28;5.68;;;3.35;;
49444;SDS011;35323;43.080;-81.378;2023-02-23T14:55:57;5.85;;;2.88;;
49444;SDS011;35323;43.080;-81.378;2023-02-23T14:58:26;3.38;;;2.35;;
49444;SDS011;35323;43.080;-81.378;2023-02-23T15:00:55;8.27;;;3.70;;
49444;SDS011;35323;43.080;-81.378;2023-02-23T15:03:23;3.40;;;2.75;;
49444;SDS011;35323;43.080;-81.378;2023-02-23T15:05:52;4.18;;;3.30;;
49444;SDS011;35323;43.080;-81.378;2023-02-23T15:08:22;3.70;;;3.08;;
49444;SDS011;35323;43.080;-81.378;2023-02-23T15:11:05;5.60;;;3.45;;
49444;SDS011;35323;43.080;-81.378;2023-02-23T15:13:37;5.97;;;3.42;;
49444;SDS011;35323;43.080;-81.378;2023-02-23T15:16:07;5.05;;;3.33;;
49444;SDS011;35323;43.080;-81.378;2023-02-23T15:18:36;5.57;;;3.75;;
49444;SDS011;35323;43.080;-81.378;2023-02-23T15:21:11;5.85;;;3.35;;
49444;SDS011;35323;43.080;-81.378;2023-02-23T15:23:40;6.35;;;4.45;;
49444;SDS011;35323;43.080;-81.378;2023-02-23T15:26:26;3.42;;;3.00;;
49444;SDS011;35323;43.080;-81.378;2023-02-23T15:31:40;4.20;;;3.60;;
49444;SDS011;35323;43.080;-81.378;2023-02-23T15:34:25;7.32;;;3.45;;
49444;SDS011;35323;43.080;-81.378;2023-02-23T15:36:57;4.97;;;3.42;;
49444;SDS011;35323;43.080;-81.378;2023-02-23T15:42:12;4.93;;;4.15;;
49444;SDS011;35323;43.080;-81.378;2023-02-23T15:44:40;2.92;;;2.67;;
49444;SDS011;35323;43.080;-81.378;2023-02-23T15:47:20;4.50;;;3.45;;
49444;SDS011;35323;43.080;-81.378;2023-02-23T15:49:49;4.22;;;3.38;;
49444;SDS011;35323;43.080;-81.378;2023-02-23T15:52:45;3.58;;;3.10;;
49444;SDS011;35323;43.080;-81.378;2023-02-23T15:55:21;8.25;;;4.57;;
49444;SDS011;35323;43.080;-81.378;2023-02-23T15:57:59;7.05;;;5.15;;
49444;SDS011;35323;43.080;-81.378;2023-02-23T16:00:29;4.15;;;2.83;;
49444;SDS011;35323;43.080;-81.378;2023-02-23T16:03:01;11.38;;;4.18;;
49444;SDS011;35323;43.080;-81.378;2023-02-23T16:05:30;7.50;;;6.10;;
49444;SDS011;35323;43.080;-81.378;2023-02-23T16:10:43;3.75;;;3.00;;
49444;SDS011;35323;43.080;-81.378;2023-02-23T16:13:14;8.07;;;3.50;;
49444;SDS011;35323;43.080;-81.378;2023-02-23T16:15:43;5.10;;;4.55;;
49444;SDS011;35323;43.080;-81.378;2023-02-23T16:18:12;4.85;;;3.13;;
49444;SDS011;35323;43.080;-81.378;2023-02-23T16:20:53;6.70;;;3.63;;
49444;SDS011;35323;43.080;-81.378;2023-02-23T16:26:00;6.38;;;4.93;;
49444;SDS011;35323;43.080;-81.378;2023-02-23T16:28:34;5.25;;;3.60;;
49444;SDS011;35323;43.080;-81.378;2023-02-23T16:31:03;7.88;;;3.47;;
49444;SDS011;35323;43.080;-81.378;2023-02-23T16:33:42;5.65;;;3.88;;
49444;SDS011;35323;43.080;-81.378;2023-02-23T16:38:39;6.22;;;4.05;;
49444;SDS011;35323;43.080;-81.378;2023-02-23T16:41:17;6.40;;;4.10;;
49444;SDS011;35323;43.080;-81.378;2023-02-23T16:43:46;4.65;;;2.95;;
49444;SDS011;35323;43.080;-81.378;2023-02-23T16:46:15;7.97;;;4.80;;
49444;SDS011;35323;43.080;-81.378;2023-02-23T16:48:43;4.15;;;3.70;;
49444;SDS011;35323;43.080;-81.378;2023-02-23T16:51:15;8.43;;;4.10;;
49444;SDS011;35323;43.080;-81.378;2023-02-23T16:53:44;9.10;;;3.70;;
49444;SDS011;35323;43.080;-81.378;2023-02-23T16:56:12;8.10;;;3.67;;